Time;durP1;ratioP1;P1;durP2;ratioP2;P2;SDS_P1;SDS_P2;PMS_P1;PMS_P2;Temp;Humidity;BMP_temperature;BMP_pressure;BME280_temperature;BME280_humidity;BME280_pressure;Samples;Min_cycle;Max_cycle;Signal;HPM_P1;HPM_P2
2022/03/18 00:00:35;;;;;;;26.02;14.65;;;;;;;;;;7386701;19;20425;-76
2022/03/18 00:03:01;;;;;;;27.15;14.23;;;;;;;;;;7385516;19;20393;-76
2022/03/18 00:05:26;;;;;;;25.10;13.65;;;;;;;;;;7386374;19;20102;-75
2022/03/18 00:07:53;;;;;;;25.30;14.23;;;;;;;;;;7385094;19;20010;-75
2022/03/18 00:10:20;;;;;;;26.58;14.75;;;;;;;;;;7390552;19;20155;-75
2022/03/18 00:12:46;;;;;;;20.10;12.57;;;;;;;;;;7391545;19;20688;-75
2022/03/18 00:15:13;;;;;;;25.15;12.68;;;;;;;;;;7391230;19;20010;-75
2022/03/18 00:17:39;;;;;;;19.83;11.48;;;;;;;;;;7392991;19;20006;-75
2022/03/18 00:20:08;;;;;;;22.00;13.07;;;;;;;;;;7390932;19;20032;-75
2022/03/18 00:22:33;;;;;;;20.77;12.73;;;;;;;;;;7393863;19;20333;-75
2022/03/18 00:24:59;;;;;;;26.30;12.57;;;;;;;;;;7394739;19;20470;-75
2022/03/18 00:27:26;;;;;;;20.98;11.27;;;;;;;;;;7391824;19;20462;-75
2022/03/18 00:29:52;;;;;;;26.40;12.90;;;;;;;;;;7392972;19;20380;-75
2022/03/18 00:32:17;;;;;;;31.33;14.35;;;;;;;;;;7394276;19;20009;-74
2022/03/18 00:34:42;;;;;;;25.05;14.25;;;;;;;;;;7394140;19;20034;-74
2022/03/18 00:37:08;;;;;;;22.35;12.40;;;;;;;;;;7392924;19;20007;-74
2022/03/18 00:39:34;;;;;;;21.77;12.00;;;;;;;;;;7393499;19;20189;-75
2022/03/18 00:42:00;;;;;;;23.13;12.55;;;;;;;;;;7394545;19;20054;-75
2022/03/18 00:44:25;;;;;;;22.20;12.43;;;;;;;;;;7393741;19;20027;-74
2022/03/18 00:46:54;;;;;;;22.00;12.13;;;;;;;;;;7391767;19;20028;-74
2022/03/18 00:52:05;;;;;;;22.75;12.43;;;;;;;;;;7391959;19;20494;-74
2022/03/18 00:54:39;;;;;;;20.52;12.82;;;;;;;;;;7392269;19;20010;-74
2022/03/18 00:57:05;;;;;;;25.88;14.10;;;;;;;;;;7391122;19;20015;-74
2022/03/18 00:59:30;;;;;;;23.23;12.75;;;;;;;;;;7392560;19;20007;-74
2022/03/18 01:01:57;;;;;;;24.10;12.95;;;;;;;;;;7394270;19;20010;-74
2022/03/18 01:04:24;;;;;;;24.50;12.70;;;;;;;;;;7392776;19;20074;-74
2022/03/18 01:06:50;;;;;;;22.73;12.70;;;;;;;;;;7391983;19;20681;-74
2022/03/18 01:09:16;;;;;;;23.15;13.27;;;;;;;;;;7391354;19;20032;-74
2022/03/18 01:11:42;;;;;;;22.95;13.32;;;;;;;;;;7393020;19;20780;-76
2022/03/18 01:14:07;;;;;;;28.02;14.50;;;;;;;;;;7390854;19;20066;-74
2022/03/18 01:16:33;;;;;;;24.98;14.57;;;;;;;;;;7391428;19;20002;-76
2022/03/18 01:18:58;;;;;;;23.40;12.02;;;;;;;;;;7388681;19;20015;-77
2022/03/18 01:21:23;;;;;;;24.30;13.07;;;;;;;;;;7388913;19;20041;-76
2022/03/18 01:23:49;;;;;;;22.98;12.88;;;;;;;;;;7391700;19;20403;-74
2022/03/18 01:26:14;;;;;;;22.30;12.25;;;;;;;;;;7392935;19;20015;-76
2022/03/18 01:28:39;;;;;;;25.20;13.55;;;;;;;;;;7389947;19;20006;-76
2022/03/18 01:31:05;;;;;;;24.77;12.45;;;;;;;;;;7389771;19;20029;-76
2022/03/18 01:33:30;;;;;;;22.52;12.30;;;;;;;;;;7392488;19;20065;-76
2022/03/18 01:35:55;;;;;;;24.92;14.13;;;;;;;;;;7393284;19;20002;-76
2022/03/18 01:38:21;;;;;;;21.88;12.85;;;;;;;;;;7390901;19;20045;-76
2022/03/18 01:40:46;;;;;;;26.75;12.30;;;;;;;;;;7390658;19;20082;-76
2022/03/18 01:43:11;;;;;;;20.00;11.25;;;;;;;;;;7391823;19;20010;-74
2022/03/18 01:45:38;;;;;;;22.85;13.18;;;;;;;;;;7393607;19;20842;-74
2022/03/18 01:48:05;;;;;;;21.83;12.95;;;;;;;;;;7391060;19;20022;-76
2022/03/18 01:50:30;;;;;;;21.15;13.07;;;;;;;;;;7392752;19;20002;-76
2022/03/18 01:52:56;;;;;;;22.15;12.27;;;;;;;;;;7390566;19;20010;-76
2022/03/18 01:55:23;;;;;;;21.55;13.57;;;;;;;;;;7393857;19;20012;-76
2022/03/18 01:57:48;;;;;;;20.77;12.13;;;;;;;;;;7391133;19;20396;-76
2022/03/18 02:00:14;;;;;;;24.38;13.07;;;;;;;;;;7391615;19;20011;-76
2022/03/18 02:02:39;;;;;;;22.05;12.45;;;;;;;;;;7390498;19;20022;-76
2022/03/18 02:05:05;;;;;;;23.42;12.15;;;;;;;;;;7393287;19;20013;-76
2022/03/18 02:07:31;;;;;;;21.25;12.68;;;;;;;;;;7391306;19;20015;-76
2022/03/18 02:09:56;;;;;;;24.95;13.45;;;;;;;;;;7392051;19;20062;-76
2022/03/18 02:12:21;;;;;;;23.90;12.65;;;;;;;;;;7390515;19;20049;-76
2022/03/18 02:14:48;;;;;;;25.67;13.98;;;;;;;;;;7390300;19;20006;-76
2022/03/18 02:17:15;;;;;;;18.17;11.40;;;;;;;;;;7391620;19;20014;-76
2022/03/18 02:19:44;;;;;;;21.75;13.00;;;;;;;;;;7389718;19;20010;-76
2022/03/18 02:22:12;;;;;;;24.90;13.45;;;;;;;;;;7391050;19;20031;-77
2022/03/18 02:24:39;;;;;;;21.35;12.18;;;;;;;;;;7392015;19;20458;-76
2022/03/18 02:27:05;;;;;;;24.80;14.15;;;;;;;;;;7392139;19;20149;-76
2022/03/18 02:29:31;;;;;;;19.60;11.80;;;;;;;;;;7390782;19;20763;-77
2022/03/18 02:31:56;;;;;;;20.95;12.15;;;;;;;;;;7389807;19;20041;-75
2022/03/18 02:34:23;;;;;;;23.95;12.63;;;;;;;;;;7392473;19;20011;-76
2022/03/18 02:36:49;;;;;;;23.00;13.02;;;;;;;;;;7389190;19;21100;-76
2022/03/18 02:39:14;;;;;;;23.95;13.20;;;;;;;;;;7389540;19;19999;-76
2022/03/18 02:41:40;;;;;;;20.67;11.63;;;;;;;;;;7389807;19;20014;-76
2022/03/18 02:44:06;;;;;;;24.48;13.48;;;;;;;;;;7390486;19;20022;-75
2022/03/18 02:46:32;;;;;;;19.98;11.38;;;;;;;;;;7389982;19;20035;-76
2022/03/18 02:48:59;;;;;;;26.42;13.15;;;;;;;;;;7389212;19;20027;-76
2022/03/18 02:51:24;;;;;;;24.95;12.18;;;;;;;;;;7391605;19;20314;-76
2022/03/18 02:53:51;;;;;;;21.88;12.65;;;;;;;;;;7389032;19;19998;-76
2022/03/18 02:56:17;;;;;;;25.55;13.02;;;;;;;;;;7390700;19;19991;-75
2022/03/18 02:58:42;;;;;;;22.13;12.80;;;;;;;;;;7387803;19;20016;-76
2022/03/18 03:01:08;;;;;;;19.48;10.70;;;;;;;;;;7389403;19;20328;-75
2022/03/18 03:03:33;;;;;;;25.08;14.50;;;;;;;;;;7388727;19;20009;-76
2022/03/18 03:08:42;;;;;;;22.65;13.40;;;;;;;;;;7385175;19;20014;-75
2022/03/18 03:11:08;;;;;;;18.20;10.63;;;;;;;;;;7387657;19;20003;-75
2022/03/18 03:13:33;;;;;;;18.85;11.32;;;;;;;;;;7384523;19;20101;-75
2022/03/18 03:16:00;;;;;;;17.13;10.00;;;;;;;;;;7387849;19;20010;-75
2022/03/18 03:18:26;;;;;;;21.17;12.48;;;;;;;;;;7386329;19;20537;-75
2022/03/18 03:20:51;;;;;;;18.10;11.00;;;;;;;;;;7386896;19;20026;-75
2022/03/18 03:23:18;;;;;;;27.13;12.40;;;;;;;;;;7388893;19;20074;-75
2022/03/18 03:25:43;;;;;;;23.30;12.18;;;;;;;;;;7388847;19;20077;-75
2022/03/18 03:28:09;;;;;;;20.67;12.25;;;;;;;;;;7386914;19;20506;-75
2022/03/18 03:30:34;;;;;;;19.95;11.68;;;;;;;;;;7388192;19;20046;-75
2022/03/18 03:32:59;;;;;;;24.42;13.02;;;;;;;;;;7389124;19;20090;-75
2022/03/18 03:35:25;;;;;;;22.67;12.18;;;;;;;;;;7389318;19;20011;-75
2022/03/18 03:37:50;;;;;;;23.77;13.63;;;;;;;;;;7386977;19;20018;-75
2022/03/18 03:40:18;;;;;;;26.05;13.07;;;;;;;;;;7386506;19;20045;-75
2022/03/18 03:42:44;;;;;;;20.48;11.95;;;;;;;;;;7387074;19;20022;-75
2022/03/18 03:45:12;;;;;;;27.92;14.25;;;;;;;;;;7395291;19;20007;-75
2022/03/18 03:47:38;;;;;;;24.33;13.30;;;;;;;;;;7394591;19;21402;-75
2022/03/18 03:50:04;;;;;;;18.00;11.18;;;;;;;;;;7393645;19;20442;-75
2022/03/18 03:52:30;;;;;;;18.05;10.60;;;;;;;;;;7395878;19;20194;-75
2022/03/18 03:54:55;;;;;;;22.27;13.30;;;;;;;;;;7394746;19;20122;-75
2022/03/18 03:57:20;;;;;;;19.17;11.55;;;;;;;;;;7394645;19;20514;-75
2022/03/18 03:59:46;;;;;;;27.17;14.10;;;;;;;;;;7394254;19;20314;-74
2022/03/18 04:02:12;;;;;;;16.95;10.02;;;;;;;;;;7394859;19;20018;-77
2022/03/18 04:04:37;;;;;;;18.80;9.77;;;;;;;;;;7395432;19;20026;-77
2022/03/18 04:07:02;;;;;;;22.65;12.35;;;;;;;;;;7392204;19;20070;-73
2022/03/18 04:09:28;;;;;;;22.65;12.10;;;;;;;;;;7392408;19;19998;-77
2022/03/18 04:11:53;;;;;;;22.77;11.68;;;;;;;;;;7396405;19;20552;-77
2022/03/18 04:14:18;;;;;;;22.60;12.75;;;;;;;;;;7392048;19;20041;-77
2022/03/18 04:16:44;;;;;;;24.33;12.73;;;;;;;;;;7396091;19;20003;-76
2022/03/18 04:19:10;;;;;;;25.42;12.60;;;;;;;;;;7391918;19;20069;-76
2022/03/18 04:21:36;;;;;;;27.40;13.25;;;;;;;;;;7393630;19;20135;-77
2022/03/18 04:24:01;;;;;;;21.33;12.85;;;;;;;;;;7395119;19;20003;-76
2022/03/18 04:26:26;;;;;;;21.98;13.88;;;;;;;;;;7393931;19;20026;-76
2022/03/18 04:28:52;;;;;;;20.17;11.57;;;;;;;;;;7391103;19;20070;-77
2022/03/18 04:31:17;;;;;;;22.38;12.52;;;;;;;;;;7395599;19;20010;-77
2022/03/18 04:33:42;;;;;;;22.83;12.43;;;;;;;;;;7395833;19;20107;-77
2022/03/18 04:36:08;;;;;;;25.70;12.68;;;;;;;;;;7395283;19;20840;-77
2022/03/18 04:38:33;;;;;;;21.60;11.63;;;;;;;;;;7392818;19;20271;-75
2022/03/18 04:40:58;;;;;;;22.80;13.02;;;;;;;;;;7393943;19;20022;-77
2022/03/18 04:43:24;;;;;;;21.60;11.45;;;;;;;;;;7391284;19;20041;-76
2022/03/18 04:45:50;;;;;;;23.38;12.35;;;;;;;;;;7394054;19;20103;-77
2022/03/18 04:48:15;;;;;;;19.40;10.88;;;;;;;;;;7391497;19;20073;-76
2022/03/18 04:50:40;;;;;;;25.08;13.15;;;;;;;;;;7392074;19;20022;-76
2022/03/18 04:53:06;;;;;;;19.23;11.63;;;;;;;;;;7393963;19;20081;-76
2022/03/18 04:55:31;;;;;;;20.88;12.88;;;;;;;;;;7393483;19;20014;-76
2022/03/18 04:57:56;;;;;;;23.02;12.13;;;;;;;;;;7393971;19;20426;-76
2022/03/18 05:00:24;;;;;;;26.88;13.02;;;;;;;;;;7392709;19;20002;-76
2022/03/18 05:02:50;;;;;;;21.95;12.38;;;;;;;;;;7393833;19;20010;-76
2022/03/18 05:05:19;;;;;;;23.05;12.88;;;;;;;;;;7391645;19;20018;-76
2022/03/18 05:07:47;;;;;;;21.33;12.23;;;;;;;;;;7393585;19;20041;-76
2022/03/18 05:10:13;;;;;;;20.40;12.95;;;;;;;;;;7391919;19;20042;-76
2022/03/18 05:12:38;;;;;;;21.55;13.07;;;;;;;;;;7395651;19;20010;-77
2022/03/18 05:15:04;;;;;;;24.52;13.52;;;;;;;;;;7396003;19;20017;-76
2022/03/18 05:17:29;;;;;;;30.38;14.50;;;;;;;;;;7393085;19;20131;-76
2022/03/18 05:19:55;;;;;;;23.90;12.15;;;;;;;;;;7390605;19;20018;-76
2022/03/18 05:22:20;;;;;;;21.90;12.68;;;;;;;;;;7393239;19;20015;-76
2022/03/18 05:24:45;;;;;;;21.27;11.95;;;;;;;;;;7392652;19;20014;-76
2022/03/18 05:27:10;;;;;;;30.67;13.30;;;;;;;;;;7389021;19;20023;-73
2022/03/18 05:29:36;;;;;;;24.17;12.98;;;;;;;;;;7392073;19;20414;-73
2022/03/18 05:32:01;;;;;;;25.58;13.75;;;;;;;;;;7393056;19;20011;-74
2022/03/18 05:34:27;;;;;;;23.98;13.30;;;;;;;;;;7394943;19;20505;-74
2022/03/18 05:36:53;;;;;;;26.00;12.88;;;;;;;;;;7392292;19;20104;-74
2022/03/18 05:39:18;;;;;;;22.75;13.50;;;;;;;;;;7394235;19;20019;-76
2022/03/18 05:41:44;;;;;;;21.80;13.18;;;;;;;;;;7393078;19;19999;-77
2022/03/18 05:44:10;;;;;;;23.90;12.77;;;;;;;;;;7392814;19;20111;-77
2022/03/18 05:46:35;;;;;;;31.70;15.00;;;;;;;;;;7396569;19;20015;-77
2022/03/18 05:49:01;;;;;;;21.42;11.85;;;;;;;;;;7392964;19;20003;-76
2022/03/18 05:51:27;;;;;;;18.63;11.70;;;;;;;;;;7397489;19;20046;-76
2022/03/18 05:53:52;;;;;;;24.27;13.85;;;;;;;;;;7397263;19;20038;-76
2022/03/18 05:59:05;;;;;;;23.40;13.02;;;;;;;;;;7392988;19;20350;-75
2022/03/18 06:01:31;;;;;;;26.92;14.35;;;;;;;;;;7393030;19;20047;-75
2022/03/18 06:03:56;;;;;;;25.75;13.55;;;;;;;;;;7395130;19;20474;-76
2022/03/18 06:06:21;;;;;;;28.13;13.73;;;;;;;;;;7392108;19;20002;-75
2022/03/18 06:11:49;;;;;;;29.98;15.95;;;;;;;;;;7395627;19;20039;-76
2022/03/18 06:14:22;;;;;;;27.90;15.13;;;;;;;;;;7392104;19;20041;-75
2022/03/18 06:16:49;;;;;;;27.77;15.63;;;;;;;;;;7393655;19;20494;-76
2022/03/18 06:19:19;;;;;;;27.38;15.48;;;;;;;;;;7393557;19;20104;-76
2022/03/18 06:21:45;;;;;;;27.58;16.00;;;;;;;;;;7394596;19;20017;-76
2022/03/18 06:24:11;;;;;;;28.02;16.25;;;;;;;;;;7394378;19;19999;-76
2022/03/18 06:26:38;;;;;;;31.83;17.40;;;;;;;;;;7395613;19;20014;-75
2022/03/18 06:29:04;;;;;;;29.95;15.98;;;;;;;;;;7390395;19;20015;-76
2022/03/18 06:31:30;;;;;;;30.02;16.63;;;;;;;;;;7393282;19;20002;-76
2022/03/18 06:33:56;;;;;;;26.98;15.82;;;;;;;;;;7394436;19;20014;-77
2022/03/18 06:36:22;;;;;;;29.23;17.10;;;;;;;;;;7392776;19;20078;-76
2022/03/18 06:44:08;;;;;;;32.97;16.10;;;;;;;;;;7392700;19;20010;-76
2022/03/18 06:46:37;;;;;;;31.42;16.35;;;;;;;;;;7395324;19;20502;-78
2022/03/18 06:49:03;;;;;;;30.75;14.15;;;;;;;;;;7394357;19;20011;-78
2022/03/18 06:51:44;;;;;;;31.15;16.83;;;;;;;;;;7393988;19;20450;-78
2022/03/18 06:54:09;;;;;;;32.17;17.15;;;;;;;;;;7397827;19;20023;-78
2022/03/18 06:56:40;;;;;;;35.10;17.00;;;;;;;;;;7397004;19;20011;-77
2022/03/18 06:59:08;;;;;;;29.50;16.70;;;;;;;;;;7394304;19;20122;-77
2022/03/18 07:01:44;;;;;;;30.95;16.42;;;;;;;;;;7392047;19;20075;-78
2022/03/18 07:04:09;;;;;;;28.48;16.55;;;;;;;;;;7397711;19;20017;-77
2022/03/18 07:06:34;;;;;;;44.10;17.63;;;;;;;;;;7396159;19;19998;-77
2022/03/18 07:09:00;;;;;;;29.33;17.35;;;;;;;;;;7396314;19;20022;-77
2022/03/18 07:11:25;;;;;;;28.70;16.08;;;;;;;;;;7397556;19;20011;-77
2022/03/18 07:13:50;;;;;;;31.95;16.77;;;;;;;;;;7394742;19;20018;-77
2022/03/18 07:19:00;;;;;;;28.23;15.10;;;;;;;;;;7393430;19;20039;-77
2022/03/18 07:21:25;;;;;;;29.17;16.88;;;;;;;;;;7395648;19;20007;-78
2022/03/18 07:23:50;;;;;;;31.38;16.13;;;;;;;;;;7395471;19;20006;-76
2022/03/18 07:26:16;;;;;;;36.85;16.17;;;;;;;;;;7393399;19;20003;-77
2022/03/18 07:29:07;;;;;;;30.05;16.33;;;;;;;;;;7389167;19;20026;-78
2022/03/18 07:31:34;;;;;;;30.35;15.60;;;;;;;;;;7394178;19;20011;-77
2022/03/18 07:34:00;;;;;;;33.60;15.82;;;;;;;;;;7394456;19;20660;-77
2022/03/18 07:36:43;;;;;;;28.35;14.90;;;;;;;;;;7392878;19;20003;-77
2022/03/18 07:39:08;;;;;;;28.70;14.73;;;;;;;;;;7391510;19;20006;-75
2022/03/18 07:41:35;;;;;;;27.75;15.48;;;;;;;;;;7391497;19;20007;-75
2022/03/18 07:44:00;;;;;;;28.30;15.30;;;;;;;;;;7390027;19;20007;-75
2022/03/18 07:46:25;;;;;;;26.30;14.93;;;;;;;;;;7392027;19;20034;-75
2022/03/18 07:48:50;;;;;;;28.50;14.95;;;;;;;;;;7390256;19;20007;-75
2022/03/18 07:51:16;;;;;;;26.48;14.77;;;;;;;;;;7388789;19;19999;-75
2022/03/18 07:53:41;;;;;;;26.48;13.60;;;;;;;;;;7391800;19;20040;-76
2022/03/18 07:56:06;;;;;;;27.60;15.00;;;;;;;;;;7391015;19;20130;-76
2022/03/18 07:58:32;;;;;;;24.10;13.18;;;;;;;;;;7389695;19;20028;-77
2022/03/18 08:00:57;;;;;;;25.58;14.48;;;;;;;;;;7388783;19;20011;-76
2022/03/18 08:03:22;;;;;;;23.67;13.55;;;;;;;;;;7387855;19;19999;-76
2022/03/18 08:05:48;;;;;;;24.30;14.05;;;;;;;;;;7391221;19;20027;-76
2022/03/18 08:08:13;;;;;;;24.85;13.85;;;;;;;;;;7389105;19;20077;-77
2022/03/18 08:10:39;;;;;;;25.00;13.70;;;;;;;;;;7393080;19;20344;-76
2022/03/18 08:13:04;;;;;;;25.17;14.70;;;;;;;;;;7392355;19;20010;-76
2022/03/18 08:15:30;;;;;;;23.13;14.00;;;;;;;;;;7391802;19;20034;-76
2022/03/18 08:17:55;;;;;;;25.80;14.80;;;;;;;;;;7387722;19;20355;-77
2022/03/18 08:20:21;;;;;;;23.60;14.02;;;;;;;;;;7389967;19;20014;-75
2022/03/18 08:22:48;;;;;;;24.55;14.23;;;;;;;;;;7392266;19;20007;-76
2022/03/18 08:25:13;;;;;;;24.75;13.27;;;;;;;;;;7388274;19;20057;-76
2022/03/18 08:27:39;;;;;;;24.73;12.75;;;;;;;;;;7390149;19;20006;-76
2022/03/18 08:30:06;;;;;;;26.10;14.02;;;;;;;;;;7390701;19;20109;-76
2022/03/18 08:32:32;;;;;;;22.55;13.63;;;;;;;;;;7395398;19;20062;-76
2022/03/18 08:34:58;;;;;;;21.58;12.70;;;;;;;;;;7403252;19;20006;-77
2022/03/18 08:40:10;;;;;;;23.77;13.40;;;;;;;;;;7398179;19;20035;-76
2022/03/18 08:42:35;;;;;;;21.63;12.25;;;;;;;;;;7400398;19;20098;-77
2022/03/18 08:45:02;;;;;;;21.85;12.88;;;;;;;;;;7407209;19;20096;-78
2022/03/18 08:47:28;;;;;;;26.80;13.45;;;;;;;;;;7416254;19;20018;-79
2022/03/18 08:49:53;;;;;;;20.75;13.20;;;;;;;;;;7419228;19;20031;-78
2022/03/18 08:52:19;;;;;;;21.23;12.80;;;;;;;;;;7425384;19;20014;-78
2022/03/18 08:54:44;;;;;;;21.25;13.30;;;;;;;;;;7427813;19;20006;-78
2022/03/18 08:57:10;;;;;;;23.13;13.40;;;;;;;;;;7424744;19;20065;-78
2022/03/18 08:59:36;;;;;;;27.67;15.32;;;;;;;;;;7426372;19;19995;-78
2022/03/18 09:02:01;;;;;;;21.95;13.00;;;;;;;;;;7416774;19;20014;-78
2022/03/18 09:04:26;;;;;;;20.20;12.48;;;;;;;;;;7409678;19;20010;-79
2022/03/18 09:06:52;;;;;;;21.45;12.15;;;;;;;;;;7414162;19;20031;-78
2022/03/18 09:09:17;;;;;;;24.88;13.32;;;;;;;;;;7412784;19;20388;-77
2022/03/18 09:11:43;;;;;;;22.10;12.27;;;;;;;;;;7409622;19;20014;-78
2022/03/18 09:14:10;;;;;;;23.40;12.38;;;;;;;;;;7409824;19;19998;-78
2022/03/18 09:16:37;;;;;;;19.48;12.27;;;;;;;;;;7400479;19;20182;-77
2022/03/18 09:19:04;;;;;;;25.05;13.52;;;;;;;;;;7394406;19;20107;-78
2022/03/18 09:21:29;;;;;;;21.30;11.90;;;;;;;;;;7396206;19;20013;-77
2022/03/18 09:23:54;;;;;;;24.35;13.10;;;;;;;;;;7395867;19;19998;-77
2022/03/18 09:26:20;;;;;;;23.33;12.73;;;;;;;;;;7394916;19;20025;-77
2022/03/18 09:28:46;;;;;;;25.23;14.05;;;;;;;;;;7395417;19;20022;-77
2022/03/18 09:31:12;;;;;;;22.88;12.98;;;;;;;;;;7395560;19;20010;-77
2022/03/18 09:33:37;;;;;;;21.75;12.90;;;;;;;;;;7392187;19;20082;-77
2022/03/18 09:36:03;;;;;;;21.08;12.93;;;;;;;;;;7394038;19;20023;-77
2022/03/18 09:38:29;;;;;;;23.35;13.35;;;;;;;;;;7395155;19;20066;-77
2022/03/18 09:40:54;;;;;;;20.40;13.13;;;;;;;;;;7393660;19;20014;-77
2022/03/18 09:43:20;;;;;;;20.52;12.73;;;;;;;;;;7384918;19;20010;-77
2022/03/18 09:45:47;;;;;;;20.17;12.55;;;;;;;;;;7389266;19;20066;-76
2022/03/18 09:48:12;;;;;;;20.70;13.15;;;;;;;;;;7387380;19;20007;-77
2022/03/18 09:50:39;;;;;;;23.77;13.10;;;;;;;;;;7391554;19;20013;-77
2022/03/18 09:53:05;;;;;;;20.90;13.23;;;;;;;;;;7396246;19;20010;-77
2022/03/18 09:55:34;;;;;;;19.33;11.98;;;;;;;;;;7397406;19;20002;-77
2022/03/18 09:58:03;;;;;;;20.00;12.13;;;;;;;;;;7384687;19;20007;-77
2022/03/18 10:01:01;;;;;;;22.40;12.23;;;;;;;;;;7392307;19;20010;-77
2022/03/18 10:04:19;;;;;;;25.88;12.85;;;;;;;;;;7394981;19;20027;-77
2022/03/18 10:06:44;;;;;;;19.88;12.60;;;;;;;;;;7401328;19;20014;-78
2022/03/18 10:09:14;;;;;;;21.52;11.85;;;;;;;;;;7405990;19;20006;-78
2022/03/18 10:11:43;;;;;;;25.73;13.73;;;;;;;;;;7394388;19;20022;-77
2022/03/18 10:14:13;;;;;;;23.05;12.40;;;;;;;;;;7391834;19;20031;-76
2022/03/18 10:16:41;;;;;;;22.30;12.27;;;;;;;;;;7398183;19;20416;-76
2022/03/18 10:19:08;;;;;;;21.42;12.40;;;;;;;;;;7386349;19;20070;-77
2022/03/18 10:21:49;;;;;;;24.02;13.20;;;;;;;;;;7390216;19;20717;-77
2022/03/18 10:24:15;;;;;;;19.95;12.40;;;;;;;;;;7392209;19;20026;-77
2022/03/18 10:26:41;;;;;;;20.05;12.55;;;;;;;;;;7400786;19;20014;-77
2022/03/18 10:29:11;;;;;;;21.65;14.18;;;;;;;;;;7390570;19;20506;-78
2022/03/18 10:31:45;;;;;;;22.52;12.85;;;;;;;;;;7401545;19;20013;-79
2022/03/18 10:37:04;;;;;;;24.60;13.10;;;;;;;;;;7405169;19;20014;-78
2022/03/18 10:39:31;;;;;;;22.58;13.32;;;;;;;;;;7404537;19;20010;-78
2022/03/18 10:42:00;;;;;;;20.80;12.75;;;;;;;;;;7399676;19;20035;-77
2022/03/18 10:44:27;;;;;;;22.15;12.73;;;;;;;;;;7404363;19;20028;-78
2022/03/18 10:46:53;;;;;;;23.40;13.73;;;;;;;;;;7401088;19;20010;-78
2022/03/18 10:49:21;;;;;;;20.05;12.75;;;;;;;;;;7401824;19;20010;-78
2022/03/18 10:51:46;;;;;;;21.73;14.13;;;;;;;;;;7398751;19;20018;-78
2022/03/18 10:54:11;;;;;;;19.88;12.40;;;;;;;;;;7394920;19;20035;-77
2022/03/18 10:56:56;;;;;;;24.83;13.43;;;;;;;;;;7397310;19;20010;-77
2022/03/18 10:59:22;;;;;;;24.70;13.38;;;;;;;;;;7396279;19;20016;-77
2022/03/18 11:01:48;;;;;;;24.38;13.10;;;;;;;;;;7391443;19;20397;-77
2022/03/18 11:04:15;;;;;;;23.83;13.48;;;;;;;;;;7393547;19;20026;-76
2022/03/18 11:06:42;;;;;;;22.20;12.48;;;;;;;;;;7395083;19;20007;-77
2022/03/18 11:09:11;;;;;;;21.70;13.13;;;;;;;;;;7396519;19;20017;-78
2022/03/18 11:11:40;;;;;;;21.63;13.45;;;;;;;;;;7396637;19;20003;-76
2022/03/18 11:14:10;;;;;;;23.13;13.50;;;;;;;;;;7392781;19;20010;-76
2022/03/18 11:16:42;;;;;;;17.30;12.13;;;;;;;;;;7396384;19;20118;-77
2022/03/18 11:19:14;;;;;;;17.80;12.23;;;;;;;;;;7393904;19;20006;-77
2022/03/18 11:21:40;;;;;;;21.92;13.10;;;;;;;;;;7394874;19;20448;-76
2022/03/18 11:24:09;;;;;;;17.73;11.75;;;;;;;;;;7390226;19;20010;-76
2022/03/18 11:26:36;;;;;;;19.25;12.35;;;;;;;;;;7392856;19;20003;-76
2022/03/18 11:29:09;;;;;;;19.30;11.32;;;;;;;;;;7385797;19;20003;-76
2022/03/18 11:31:35;;;;;;;17.58;11.18;;;;;;;;;;7385301;19;20014;-76
2022/03/18 11:34:11;;;;;;;24.95;11.57;;;;;;;;;;7396026;19;20010;-76
2022/03/18 11:36:43;;;;;;;;;;;;;;;;;;7394512;19;20010;-77
2022/03/18 11:39:09;;;;;;;19.02;11.40;;;;;;;;;;7393320;19;19910;-78
2022/03/18 11:41:45;;;;;;;21.55;11.45;;;;;;;;;;7400439;19;19998;-78
2022/03/18 11:44:10;;;;;;;18.90;11.38;;;;;;;;;;7401667;19;20014;-79
2022/03/18 11:46:35;;;;;;;19.50;12.10;;;;;;;;;;7395069;19;20355;-78
2022/03/18 11:49:05;;;;;;;19.25;11.48;;;;;;;;;;7392136;19;20007;-77
2022/03/18 11:51:32;;;;;;;18.80;11.48;;;;;;;;;;7398987;19;20507;-78
2022/03/18 11:54:16;;;;;;;18.10;11.07;;;;;;;;;;7398997;19;19998;-77
2022/03/18 11:56:55;;;;;;;18.02;10.65;;;;;;;;;;7392674;19;20021;-79
2022/03/18 11:59:29;;;;;;;17.25;10.95;;;;;;;;;;7394236;19;20003;-79
2022/03/18 12:02:06;;;;;;;18.30;11.00;;;;;;;;;;7395126;19;20006;-77
2022/03/18 12:04:48;;;;;;;17.80;11.05;;;;;;;;;;7399572;19;20013;-77
2022/03/18 12:07:25;;;;;;;17.13;11.57;;;;;;;;;;7405265;19;20035;-78
2022/03/18 12:09:55;;;;;;;18.38;11.00;;;;;;;;;;7404164;19;20011;-78
2022/03/18 12:12:28;;;;;;;17.77;11.73;;;;;;;;;;7407160;19;20011;-79
2022/03/18 12:14:56;;;;;;;18.90;12.05;;;;;;;;;;7402714;19;20023;-78
2022/03/18 12:17:23;;;;;;;23.30;12.45;;;;;;;;;;7401864;19;20010;-78
2022/03/18 12:19:54;;;;;;;16.33;11.40;;;;;;;;;;7400087;19;20010;-78
2022/03/18 12:22:20;;;;;;;16.75;11.15;;;;;;;;;;7401968;19;19998;-79
2022/03/18 12:24:54;;;;;;;18.55;11.52;;;;;;;;;;7404972;19;20025;-80
2022/03/18 12:27:22;;;;;;;19.10;10.48;;;;;;;;;;7404888;19;20011;-80
2022/03/18 12:29:47;;;;;;;18.23;11.45;;;;;;;;;;7403966;19;20041;-80
2022/03/18 12:32:18;;;;;;;18.85;11.82;;;;;;;;;;7401739;19;20506;-79
2022/03/18 12:34:49;;;;;;;22.10;11.52;;;;;;;;;;7397101;19;20007;-80
2022/03/18 12:37:22;;;;;;;17.05;12.15;;;;;;;;;;7400440;19;20035;-79
2022/03/18 12:40:00;;;;;;;18.40;10.80;;;;;;;;;;7401227;19;20018;-79
2022/03/18 12:42:26;;;;;;;16.13;10.40;;;;;;;;;;7403118;19;20134;-79
2022/03/18 12:44:57;;;;;;;23.30;11.45;;;;;;;;;;7399187;19;20117;-79
2022/03/18 12:47:24;;;;;;;17.58;10.70;;;;;;;;;;7401590;19;20022;-78
2022/03/18 12:49:50;;;;;;;13.75;9.20;;;;;;;;;;7401143;19;20027;-78
2022/03/18 12:52:16;;;;;;;20.05;10.10;;;;;;;;;;7397989;19;20013;-77
2022/03/18 12:55:04;;;;;;;15.60;9.82;;;;;;;;;;7400099;19;20098;-79
2022/03/18 12:57:38;;;;;;;15.63;9.88;;;;;;;;;;7396045;19;21675;-78
2022/03/18 13:00:06;;;;;;;16.63;9.57;;;;;;;;;;7398691;19;20031;-78
2022/03/18 13:02:34;;;;;;;14.23;9.95;;;;;;;;;;7398144;19;20021;-78
2022/03/18 13:05:00;;;;;;;18.73;9.68;;;;;;;;;;7400529;19;20038;-77
2022/03/18 13:07:27;;;;;;;15.27;9.82;;;;;;;;;;7398046;19;20015;-78
2022/03/18 13:09:54;;;;;;;15.73;9.07;;;;;;;;;;7398200;19;20014;-78
2022/03/18 13:12:29;;;;;;;12.95;9.23;;;;;;;;;;7398254;19;20014;-78
2022/03/18 13:14:56;;;;;;;12.52;8.98;;;;;;;;;;7400262;19;20014;-79
2022/03/18 13:17:31;;;;;;;16.42;9.73;;;;;;;;;;7397266;19;20525;-78
2022/03/18 13:19:57;;;;;;;16.48;9.30;;;;;;;;;;7398107;19;20071;-79
2022/03/18 13:22:28;;;;;;;13.90;8.75;;;;;;;;;;7405937;19;20010;-78
2022/03/18 13:24:55;;;;;;;14.00;8.18;;;;;;;;;;7397429;19;20014;-78
2022/03/18 13:27:22;;;;;;;11.70;7.95;;;;;;;;;;7406817;19;20046;-78
2022/03/18 13:32:51;;;;;;;;;;;;;;;;;;7406209;19;20017;-77
2022/03/18 13:35:26;;;;;;;11.77;6.50;;;;;;;;;;7405929;19;19922;-79
2022/03/18 13:38:12;;;;;;;18.13;7.33;;;;;;;;;;7399861;19;20018;-78
2022/03/18 13:40:56;;;;;;;11.43;6.25;;;;;;;;;;7401086;19;20019;-78
2022/03/18 13:43:33;;;;;;;11.88;6.70;;;;;;;;;;7397422;19;20014;-78
2022/03/18 13:46:16;;;;;;;11.13;7.03;;;;;;;;;;7399028;19;20003;-79
2022/03/18 13:48:43;;;;;;;9.75;6.85;;;;;;;;;;7392871;19;20006;-78
2022/03/18 13:51:10;;;;;;;11.98;6.82;;;;;;;;;;7391584;19;20511;-78
2022/03/18 13:53:38;;;;;;;11.10;6.60;;;;;;;;;;7394923;19;20039;-78
2022/03/18 13:56:14;;;;;;;9.00;6.18;;;;;;;;;;7394881;19;20017;-78
2022/03/18 13:58:40;;;;;;;8.98;5.40;;;;;;;;;;7396782;19;20006;-78
2022/03/18 14:01:14;;;;;;;11.85;6.47;;;;;;;;;;7399956;19;20362;-79
2022/03/18 14:03:42;;;;;;;11.02;6.32;;;;;;;;;;7402968;19;20002;-79
2022/03/18 14:06:08;;;;;;;11.45;6.47;;;;;;;;;;7401919;19;19999;-79
2022/03/18 14:08:42;;;;;;;11.85;7.20;;;;;;;;;;7403247;19;20380;-79
2022/03/18 14:14:29;;;;;;;9.30;6.75;;;;;;;;;;7404311;19;20043;-78
2022/03/18 14:17:09;;;;;;;11.82;6.32;;;;;;;;;;7402254;19;20015;-78
2022/03/18 14:20:08;;;;;;;13.95;7.28;;;;;;;;;;7403284;19;20422;-80
2022/03/18 14:22:42;;;;;;;11.80;7.45;;;;;;;;;;7398068;19;20025;-78
2022/03/18 14:25:17;;;;;;;11.40;6.88;;;;;;;;;;7397779;19;20017;-79
2022/03/18 14:27:52;;;;;;;13.70;7.47;;;;;;;;;;7393782;19;20015;-79
2022/03/18 14:30:24;;;;;;;12.18;6.97;;;;;;;;;;7400720;19;20341;-80
2022/03/18 14:32:54;;;;;;;11.57;7.05;;;;;;;;;;7408699;19;20014;-78
2022/03/18 14:35:20;;;;;;;12.00;6.95;;;;;;;;;;7404931;19;20010;-81
2022/03/18 14:37:47;;;;;;;11.65;6.72;;;;;;;;;;7404423;19;20039;-80
2022/03/18 14:40:15;;;;;;;11.63;6.85;;;;;;;;;;7402478;19;20112;-80
2022/03/18 14:42:42;;;;;;;12.82;7.35;;;;;;;;;;7405231;19;20018;-79
2022/03/18 14:45:08;;;;;;;10.20;6.53;;;;;;;;;;7403081;19;20076;-79
2022/03/18 14:47:34;;;;;;;12.52;7.03;;;;;;;;;;7405481;19;20026;-77
2022/03/18 14:49:59;;;;;;;10.88;6.93;;;;;;;;;;7405508;19;20145;-79
2022/03/18 14:52:24;;;;;;;14.00;6.57;;;;;;;;;;7407840;19;20014;-79